sensor_id;sensor_type;location;lat;lon;timestamp;P1;durP1;ratioP1;P2;durP2;ratioP2
10557;SDS011;5327;47.238;-2.304;2022-09-21T00:01:20;13.77;;;6.03;;
10557;SDS011;5327;47.238;-2.304;2022-09-21T00:03:47;17.17;;;6.40;;
10557;SDS011;5327;47.238;-2.304;2022-09-21T00:06:17;15.33;;;5.90;;
10557;SDS011;5327;47.238;-2.304;2022-09-21T00:08:44;16.03;;;6.77;;
10557;SDS011;5327;47.238;-2.304;2022-09-21T00:11:26;15.43;;;6.00;;
10557;SDS011;5327;47.238;-2.304;2022-09-21T00:13:53;17.53;;;6.50;;
10557;SDS011;5327;47.238;-2.304;2022-09-21T00:16:20;19.43;;;7.67;;
10557;SDS011;5327;47.238;-2.304;2022-09-21T00:18:46;20.43;;;7.60;;
10557;SDS011;5327;47.238;-2.304;2022-09-21T00:21:13;15.07;;;6.20;;
10557;SDS011;5327;47.238;-2.304;2022-09-21T00:23:39;18.90;;;6.83;;
10557;SDS011;5327;47.238;-2.304;2022-09-21T00:26:15;15.07;;;7.20;;
10557;SDS011;5327;47.238;-2.304;2022-09-21T00:28:42;17.13;;;6.97;;
10557;SDS011;5327;47.238;-2.304;2022-09-21T00:31:09;12.30;;;5.53;;
10557;SDS011;5327;47.238;-2.304;2022-09-21T00:33:36;16.50;;;7.00;;
10557;SDS011;5327;47.238;-2.304;2022-09-21T00:36:03;16.93;;;6.90;;
10557;SDS011;5327;47.238;-2.304;2022-09-21T00:38:29;11.40;;;5.47;;
10557;SDS011;5327;47.238;-2.304;2022-09-21T00:40:55;17.53;;;6.80;;
10557;SDS011;5327;47.238;-2.304;2022-09-21T00:43:22;14.70;;;6.13;;
10557;SDS011;5327;47.238;-2.304;2022-09-21T00:45:48;14.63;;;6.57;;
10557;SDS011;5327;47.238;-2.304;2022-09-21T00:48:15;20.47;;;7.60;;
10557;SDS011;5327;47.238;-2.304;2022-09-21T00:50:43;13.17;;;6.13;;
10557;SDS011;5327;47.238;-2.304;2022-09-21T00:53:11;19.10;;;6.60;;
10557;SDS011;5327;47.238;-2.304;2022-09-21T00:55:42;15.57;;;5.90;;
10557;SDS011;5327;47.238;-2.304;2022-09-21T00:58:11;14.87;;;6.83;;
10557;SDS011;5327;47.238;-2.304;2022-09-21T01:00:39;13.83;;;6.10;;
10557;SDS011;5327;47.238;-2.304;2022-09-21T01:03:07;13.30;;;6.40;;
10557;SDS011;5327;47.238;-2.304;2022-09-21T01:05:34;15.73;;;5.70;;
10557;SDS011;5327;47.238;-2.304;2022-09-21T01:08:00;18.33;;;7.00;;
10557;SDS011;5327;47.238;-2.304;2022-09-21T01:10:28;15.43;;;7.13;;
10557;SDS011;5327;47.238;-2.304;2022-09-21T01:15:56;14.60;;;6.10;;
10557;SDS011;5327;47.238;-2.304;2022-09-21T01:31:25;9.60;;;5.27;;
10557;SDS011;5327;47.238;-2.304;2022-09-21T01:33:53;12.77;;;5.93;;
10557;SDS011;5327;47.238;-2.304;2022-09-21T01:36:21;14.60;;;6.23;;
10557;SDS011;5327;47.238;-2.304;2022-09-21T01:38:54;15.00;;;6.40;;
10557;SDS011;5327;47.238;-2.304;2022-09-21T01:41:21;19.17;;;6.80;;
10557;SDS011;5327;47.238;-2.304;2022-09-21T01:43:51;15.13;;;6.90;;
10557;SDS011;5327;47.238;-2.304;2022-09-21T01:46:20;13.87;;;5.90;;
10557;SDS011;5327;47.238;-2.304;2022-09-21T01:48:47;14.60;;;5.37;;
10557;SDS011;5327;47.238;-2.304;2022-09-21T01:51:15;11.40;;;5.40;;
10557;SDS011;5327;47.238;-2.304;2022-09-21T01:53:44;14.00;;;6.60;;
10557;SDS011;5327;47.238;-2.304;2022-09-21T01:56:14;10.77;;;5.47;;
10557;SDS011;5327;47.238;-2.304;2022-09-21T01:58:45;12.67;;;5.90;;
10557;SDS011;5327;47.238;-2.304;2022-09-21T02:01:13;13.20;;;6.50;;
10557;SDS011;5327;47.238;-2.304;2022-09-21T02:03:42;18.80;;;7.20;;
10557;SDS011;5327;47.238;-2.304;2022-09-21T02:06:10;14.00;;;7.30;;
10557;SDS011;5327;47.238;-2.304;2022-09-21T02:08:36;14.20;;;6.67;;
10557;SDS011;5327;47.238;-2.304;2022-09-21T02:11:03;15.60;;;7.20;;
10557;SDS011;5327;47.238;-2.304;2022-09-21T02:13:30;11.87;;;5.73;;
10557;SDS011;5327;47.238;-2.304;2022-09-21T02:18:43;12.53;;;6.70;;
10557;SDS011;5327;47.238;-2.304;2022-09-21T02:21:20;16.03;;;6.60;;
10557;SDS011;5327;47.238;-2.304;2022-09-21T02:23:50;13.07;;;6.10;;
10557;SDS011;5327;47.238;-2.304;2022-09-21T02:26:20;13.00;;;6.23;;
10557;SDS011;5327;47.238;-2.304;2022-09-21T02:28:51;16.80;;;6.87;;
10557;SDS011;5327;47.238;-2.304;2022-09-21T02:31:25;16.50;;;7.93;;
10557;SDS011;5327;47.238;-2.304;2022-09-21T02:36:46;15.83;;;7.00;;
10557;SDS011;5327;47.238;-2.304;2022-09-21T02:39:16;17.10;;;7.77;;
10557;SDS011;5327;47.238;-2.304;2022-09-21T02:44:17;16.00;;;7.53;;
10557;SDS011;5327;47.238;-2.304;2022-09-21T02:49:19;17.30;;;7.57;;
10557;SDS011;5327;47.238;-2.304;2022-09-21T02:51:49;17.73;;;8.23;;
10557;SDS011;5327;47.238;-2.304;2022-09-21T02:54:17;14.00;;;6.67;;
10557;SDS011;5327;47.238;-2.304;2022-09-21T02:56:45;17.00;;;6.77;;
10557;SDS011;5327;47.238;-2.304;2022-09-21T02:59:12;9.73;;;6.20;;
10557;SDS011;5327;47.238;-2.304;2022-09-21T03:01:39;12.00;;;6.67;;
10557;SDS011;5327;47.238;-2.304;2022-09-21T03:04:05;15.60;;;6.53;;
10557;SDS011;5327;47.238;-2.304;2022-09-21T03:06:32;12.47;;;6.27;;
10557;SDS011;5327;47.238;-2.304;2022-09-21T03:08:58;13.80;;;6.90;;
10557;SDS011;5327;47.238;-2.304;2022-09-21T03:11:24;14.57;;;6.97;;
10557;SDS011;5327;47.238;-2.304;2022-09-21T03:13:50;14.73;;;7.03;;
10557;SDS011;5327;47.238;-2.304;2022-09-21T03:16:16;13.00;;;7.00;;
10557;SDS011;5327;47.238;-2.304;2022-09-21T03:18:42;13.60;;;8.07;;
10557;SDS011;5327;47.238;-2.304;2022-09-21T03:21:14;13.40;;;6.90;;
10557;SDS011;5327;47.238;-2.304;2022-09-21T03:23:40;12.60;;;6.77;;
10557;SDS011;5327;47.238;-2.304;2022-09-21T03:26:06;11.83;;;6.77;;
10557;SDS011;5327;47.238;-2.304;2022-09-21T03:28:32;12.57;;;7.03;;
10557;SDS011;5327;47.238;-2.304;2022-09-21T03:30:59;10.70;;;6.10;;
10557;SDS011;5327;47.238;-2.304;2022-09-21T03:33:25;14.53;;;7.17;;
10557;SDS011;5327;47.238;-2.304;2022-09-21T03:35:51;14.03;;;7.70;;
10557;SDS011;5327;47.238;-2.304;2022-09-21T03:38:18;12.33;;;7.00;;
10557;SDS011;5327;47.238;-2.304;2022-09-21T03:40:48;14.10;;;7.40;;
10557;SDS011;5327;47.238;-2.304;2022-09-21T03:43:15;10.40;;;6.53;;
10557;SDS011;5327;47.238;-2.304;2022-09-21T03:45:41;14.20;;;7.87;;
10557;SDS011;5327;47.238;-2.304;2022-09-21T03:48:08;12.07;;;6.43;;
10557;SDS011;5327;47.238;-2.304;2022-09-21T03:50:34;12.50;;;7.73;;
10557;SDS011;5327;47.238;-2.304;2022-09-21T03:53:00;14.00;;;7.83;;
10557;SDS011;5327;47.238;-2.304;2022-09-21T03:55:26;11.37;;;7.10;;
10557;SDS011;5327;47.238;-2.304;2022-09-21T03:57:53;13.03;;;8.20;;
10557;SDS011;5327;47.238;-2.304;2022-09-21T04:00:20;12.20;;;8.00;;
10557;SDS011;5327;47.238;-2.304;2022-09-21T04:02:46;13.23;;;7.07;;
10557;SDS011;5327;47.238;-2.304;2022-09-21T04:05:13;12.47;;;7.40;;
10557;SDS011;5327;47.238;-2.304;2022-09-21T04:07:39;13.20;;;7.53;;
10557;SDS011;5327;47.238;-2.304;2022-09-21T04:10:06;11.60;;;7.37;;
10557;SDS011;5327;47.238;-2.304;2022-09-21T04:12:33;16.13;;;8.80;;
10557;SDS011;5327;47.238;-2.304;2022-09-21T04:15:00;14.10;;;8.13;;
10557;SDS011;5327;47.238;-2.304;2022-09-21T04:17:26;13.60;;;8.13;;
10557;SDS011;5327;47.238;-2.304;2022-09-21T04:19:53;12.00;;;7.73;;
10557;SDS011;5327;47.238;-2.304;2022-09-21T04:22:19;16.70;;;7.40;;
10557;SDS011;5327;47.238;-2.304;2022-09-21T04:24:45;12.90;;;8.77;;
10557;SDS011;5327;47.238;-2.304;2022-09-21T04:27:11;14.93;;;8.33;;
10557;SDS011;5327;47.238;-2.304;2022-09-21T04:29:37;13.77;;;8.50;;
10557;SDS011;5327;47.238;-2.304;2022-09-21T04:32:03;15.57;;;9.43;;
10557;SDS011;5327;47.238;-2.304;2022-09-21T04:34:30;19.90;;;8.57;;
10557;SDS011;5327;47.238;-2.304;2022-09-21T04:36:57;16.10;;;9.80;;
10557;SDS011;5327;47.238;-2.304;2022-09-21T04:39:24;25.50;;;10.70;;
10557;SDS011;5327;47.238;-2.304;2022-09-21T04:41:50;12.17;;;8.80;;
10557;SDS011;5327;47.238;-2.304;2022-09-21T04:44:16;16.43;;;9.13;;
10557;SDS011;5327;47.238;-2.304;2022-09-21T04:46:43;16.70;;;8.80;;
10557;SDS011;5327;47.238;-2.304;2022-09-21T04:49:09;11.53;;;8.47;;
10557;SDS011;5327;47.238;-2.304;2022-09-21T04:51:35;13.70;;;9.07;;
10557;SDS011;5327;47.238;-2.304;2022-09-21T04:54:01;17.83;;;10.17;;
10557;SDS011;5327;47.238;-2.304;2022-09-21T04:56:27;15.27;;;9.20;;
10557;SDS011;5327;47.238;-2.304;2022-09-21T04:58:54;18.20;;;9.57;;
10557;SDS011;5327;47.238;-2.304;2022-09-21T05:01:20;15.87;;;9.70;;
10557;SDS011;5327;47.238;-2.304;2022-09-21T05:03:46;17.50;;;10.80;;
10557;SDS011;5327;47.238;-2.304;2022-09-21T05:06:12;23.47;;;11.13;;
10557;SDS011;5327;47.238;-2.304;2022-09-21T05:08:39;16.73;;;10.00;;
10557;SDS011;5327;47.238;-2.304;2022-09-21T05:11:23;19.07;;;10.83;;
10557;SDS011;5327;47.238;-2.304;2022-09-21T05:13:50;18.27;;;10.87;;
10557;SDS011;5327;47.238;-2.304;2022-09-21T05:16:16;30.40;;;11.47;;
10557;SDS011;5327;47.238;-2.304;2022-09-21T05:18:42;25.00;;;11.33;;
10557;SDS011;5327;47.238;-2.304;2022-09-21T05:21:10;23.13;;;11.50;;
10557;SDS011;5327;47.238;-2.304;2022-09-21T05:23:37;21.30;;;11.03;;
10557;SDS011;5327;47.238;-2.304;2022-09-21T05:26:03;24.53;;;12.03;;
10557;SDS011;5327;47.238;-2.304;2022-09-21T05:28:29;18.57;;;10.63;;
10557;SDS011;5327;47.238;-2.304;2022-09-21T05:31:02;19.77;;;11.60;;
10557;SDS011;5327;47.238;-2.304;2022-09-21T05:33:29;21.13;;;11.90;;
10557;SDS011;5327;47.238;-2.304;2022-09-21T05:38:23;16.80;;;11.50;;
10557;SDS011;5327;47.238;-2.304;2022-09-21T05:40:49;22.90;;;12.60;;
10557;SDS011;5327;47.238;-2.304;2022-09-21T05:43:16;23.37;;;11.70;;
10557;SDS011;5327;47.238;-2.304;2022-09-21T05:45:47;16.87;;;9.97;;
10557;SDS011;5327;47.238;-2.304;2022-09-21T05:48:22;16.27;;;10.40;;
10557;SDS011;5327;47.238;-2.304;2022-09-21T05:53:37;17.00;;;10.20;;
10557;SDS011;5327;47.238;-2.304;2022-09-21T05:56:15;18.53;;;11.40;;
10557;SDS011;5327;47.238;-2.304;2022-09-21T05:58:55;20.10;;;12.80;;
10557;SDS011;5327;47.238;-2.304;2022-09-21T06:03:50;19.87;;;12.53;;
10557;SDS011;5327;47.238;-2.304;2022-09-21T06:06:17;26.70;;;13.77;;
10557;SDS011;5327;47.238;-2.304;2022-09-21T06:08:43;23.77;;;12.73;;
10557;SDS011;5327;47.238;-2.304;2022-09-21T06:11:10;24.87;;;14.47;;
10557;SDS011;5327;47.238;-2.304;2022-09-21T06:13:36;21.63;;;14.00;;
10557;SDS011;5327;47.238;-2.304;2022-09-21T06:16:02;24.73;;;14.47;;
10557;SDS011;5327;47.238;-2.304;2022-09-21T06:18:28;21.97;;;13.07;;
10557;SDS011;5327;47.238;-2.304;2022-09-21T06:20:54;22.20;;;12.90;;
10557;SDS011;5327;47.238;-2.304;2022-09-21T06:23:20;19.73;;;13.53;;
10557;SDS011;5327;47.238;-2.304;2022-09-21T06:25:50;18.60;;;12.10;;
10557;SDS011;5327;47.238;-2.304;2022-09-21T06:28:16;22.17;;;14.10;;
10557;SDS011;5327;47.238;-2.304;2022-09-21T06:30:42;19.83;;;13.30;;
10557;SDS011;5327;47.238;-2.304;2022-09-21T06:33:09;23.03;;;14.00;;
10557;SDS011;5327;47.238;-2.304;2022-09-21T06:35:35;19.00;;;11.53;;
10557;SDS011;5327;47.238;-2.304;2022-09-21T06:38:05;24.17;;;14.67;;
10557;SDS011;5327;47.238;-2.304;2022-09-21T06:40:32;25.20;;;14.53;;
10557;SDS011;5327;47.238;-2.304;2022-09-21T06:42:59;21.67;;;13.07;;
10557;SDS011;5327;47.238;-2.304;2022-09-21T06:45:26;26.47;;;16.73;;
10557;SDS011;5327;47.238;-2.304;2022-09-21T06:47:52;24.73;;;14.63;;
10557;SDS011;5327;47.238;-2.304;2022-09-21T06:50:18;21.80;;;13.73;;
10557;SDS011;5327;47.238;-2.304;2022-09-21T06:52:45;19.67;;;13.77;;
10557;SDS011;5327;47.238;-2.304;2022-09-21T06:55:11;19.03;;;13.67;;
10557;SDS011;5327;47.238;-2.304;2022-09-21T06:57:37;33.87;;;16.47;;
10557;SDS011;5327;47.238;-2.304;2022-09-21T07:00:07;23.43;;;13.53;;
10557;SDS011;5327;47.238;-2.304;2022-09-21T07:02:34;19.37;;;14.97;;
10557;SDS011;5327;47.238;-2.304;2022-09-21T07:05:00;24.60;;;14.57;;
10557;SDS011;5327;47.238;-2.304;2022-09-21T07:07:29;20.03;;;13.00;;
10557;SDS011;5327;47.238;-2.304;2022-09-21T07:09:55;21.00;;;12.80;;
10557;SDS011;5327;47.238;-2.304;2022-09-21T07:12:23;25.83;;;15.47;;
10557;SDS011;5327;47.238;-2.304;2022-09-21T07:14:50;29.53;;;12.63;;
10557;SDS011;5327;47.238;-2.304;2022-09-21T07:17:16;18.17;;;11.43;;
10557;SDS011;5327;47.238;-2.304;2022-09-21T07:19:42;23.63;;;12.47;;
10557;SDS011;5327;47.238;-2.304;2022-09-21T07:22:08;18.87;;;9.90;;
10557;SDS011;5327;47.238;-2.304;2022-09-21T07:24:34;25.03;;;12.77;;
10557;SDS011;5327;47.238;-2.304;2022-09-21T07:27:00;22.80;;;11.47;;
10557;SDS011;5327;47.238;-2.304;2022-09-21T07:29:26;21.47;;;11.23;;
10557;SDS011;5327;47.238;-2.304;2022-09-21T07:31:52;19.93;;;9.80;;
10557;SDS011;5327;47.238;-2.304;2022-09-21T07:34:18;23.77;;;10.50;;
10557;SDS011;5327;47.238;-2.304;2022-09-21T07:36:44;24.23;;;9.90;;
10557;SDS011;5327;47.238;-2.304;2022-09-21T07:39:10;21.00;;;10.33;;
10557;SDS011;5327;47.238;-2.304;2022-09-21T07:41:36;22.80;;;10.20;;
10557;SDS011;5327;47.238;-2.304;2022-09-21T07:44:03;19.10;;;8.87;;
10557;SDS011;5327;47.238;-2.304;2022-09-21T07:46:29;18.60;;;10.00;;
10557;SDS011;5327;47.238;-2.304;2022-09-21T07:48:55;20.63;;;10.10;;
10557;SDS011;5327;47.238;-2.304;2022-09-21T07:51:22;28.37;;;11.80;;
10557;SDS011;5327;47.238;-2.304;2022-09-21T07:53:52;24.00;;;10.17;;
10557;SDS011;5327;47.238;-2.304;2022-09-21T07:56:20;24.10;;;10.70;;
10557;SDS011;5327;47.238;-2.304;2022-09-21T07:58:46;27.40;;;11.57;;
10557;SDS011;5327;47.238;-2.304;2022-09-21T08:01:30;22.30;;;10.20;;
10557;SDS011;5327;47.238;-2.304;2022-09-21T08:03:57;28.57;;;10.83;;
10557;SDS011;5327;47.238;-2.304;2022-09-21T08:06:24;21.00;;;8.03;;
10557;SDS011;5327;47.238;-2.304;2022-09-21T08:08:50;22.00;;;8.60;;
10557;SDS011;5327;47.238;-2.304;2022-09-21T08:11:18;19.17;;;8.20;;
10557;SDS011;5327;47.238;-2.304;2022-09-21T08:13:46;16.13;;;7.90;;
10557;SDS011;5327;47.238;-2.304;2022-09-21T08:16:12;18.63;;;8.60;;
10557;SDS011;5327;47.238;-2.304;2022-09-21T08:18:39;17.60;;;6.93;;
10557;SDS011;5327;47.238;-2.304;2022-09-21T08:21:06;22.37;;;7.77;;
10557;SDS011;5327;47.238;-2.304;2022-09-21T08:23:32;18.40;;;7.83;;
10557;SDS011;5327;47.238;-2.304;2022-09-21T08:25:59;14.30;;;6.70;;
10557;SDS011;5327;47.238;-2.304;2022-09-21T08:28:26;22.57;;;7.57;;
10557;SDS011;5327;47.238;-2.304;2022-09-21T08:30:52;17.63;;;7.37;;
10557;SDS011;5327;47.238;-2.304;2022-09-21T08:33:18;11.03;;;6.40;;
10557;SDS011;5327;47.238;-2.304;2022-09-21T08:35:51;11.77;;;6.20;;
10557;SDS011;5327;47.238;-2.304;2022-09-21T08:38:18;14.17;;;6.50;;
10557;SDS011;5327;47.238;-2.304;2022-09-21T08:40:44;12.50;;;6.13;;
10557;SDS011;5327;47.238;-2.304;2022-09-21T08:43:11;17.93;;;6.27;;
10557;SDS011;5327;47.238;-2.304;2022-09-21T08:45:41;15.50;;;6.90;;
10557;SDS011;5327;47.238;-2.304;2022-09-21T08:48:24;15.60;;;6.73;;
10557;SDS011;5327;47.238;-2.304;2022-09-21T08:50:52;14.60;;;5.70;;
10557;SDS011;5327;47.238;-2.304;2022-09-21T08:53:32;13.10;;;5.60;;
10557;SDS011;5327;47.238;-2.304;2022-09-21T08:55:59;12.43;;;5.03;;
10557;SDS011;5327;47.238;-2.304;2022-09-21T08:58:27;13.40;;;5.40;;
10557;SDS011;5327;47.238;-2.304;2022-09-21T09:06:04;10.13;;;3.93;;
10557;SDS011;5327;47.238;-2.304;2022-09-21T09:21:39;9.40;;;4.23;;
10557;SDS011;5327;47.238;-2.304;2022-09-21T09:24:30;7.83;;;4.00;;
10557;SDS011;5327;47.238;-2.304;2022-09-21T09:27:14;9.90;;;4.00;;
10557;SDS011;5327;47.238;-2.304;2022-09-21T09:29:47;9.97;;;3.77;;
10557;SDS011;5327;47.238;-2.304;2022-09-21T09:32:17;7.27;;;3.87;;
10557;SDS011;5327;47.238;-2.304;2022-09-21T09:34:48;10.70;;;3.93;;
10557;SDS011;5327;47.238;-2.304;2022-09-21T09:37:17;7.77;;;3.77;;
10557;SDS011;5327;47.238;-2.304;2022-09-21T09:39:50;8.27;;;4.20;;
10557;SDS011;5327;47.238;-2.304;2022-09-21T09:52:20;10.27;;;4.63;;
10557;SDS011;5327;47.238;-2.304;2022-09-21T09:54:46;7.23;;;3.60;;
10557;SDS011;5327;47.238;-2.304;2022-09-21T09:57:12;10.93;;;3.63;;
10557;SDS011;5327;47.238;-2.304;2022-09-21T09:59:49;6.40;;;3.70;;
10557;SDS011;5327;47.238;-2.304;2022-09-21T10:02:22;7.73;;;3.60;;
10557;SDS011;5327;47.238;-2.304;2022-09-21T10:04:55;7.40;;;2.80;;
10557;SDS011;5327;47.238;-2.304;2022-09-21T10:10:00;8.27;;;2.87;;
10557;SDS011;5327;47.238;-2.304;2022-09-21T10:12:27;11.20;;;3.70;;
10557;SDS011;5327;47.238;-2.304;2022-09-21T10:14:56;8.70;;;3.50;;
10557;SDS011;5327;47.238;-2.304;2022-09-21T10:17:25;5.53;;;3.10;;
10557;SDS011;5327;47.238;-2.304;2022-09-21T10:19:58;7.03;;;3.40;;
10557;SDS011;5327;47.238;-2.304;2022-09-21T10:22:25;7.60;;;4.17;;
10557;SDS011;5327;47.238;-2.304;2022-09-21T10:24:52;7.60;;;3.77;;
10557;SDS011;5327;47.238;-2.304;2022-09-21T10:27:25;7.97;;;4.00;;
10557;SDS011;5327;47.238;-2.304;2022-09-21T10:29:52;23.70;;;7.70;;
10557;SDS011;5327;47.238;-2.304;2022-09-21T10:32:19;6.20;;;3.30;;
10557;SDS011;5327;47.238;-2.304;2022-09-21T10:34:59;12.37;;;4.43;;
10557;SDS011;5327;47.238;-2.304;2022-09-21T10:39:53;8.70;;;4.10;;
10557;SDS011;5327;47.238;-2.304;2022-09-21T10:42:20;6.73;;;3.90;;
10557;SDS011;5327;47.238;-2.304;2022-09-21T10:44:47;8.30;;;3.53;;
10557;SDS011;5327;47.238;-2.304;2022-09-21T10:49:52;7.00;;;3.07;;
10557;SDS011;5327;47.238;-2.304;2022-09-21T10:52:20;7.90;;;3.40;;
10557;SDS011;5327;47.238;-2.304;2022-09-21T10:54:47;7.20;;;3.57;;
10557;SDS011;5327;47.238;-2.304;2022-09-21T10:57:17;11.37;;;4.23;;
10557;SDS011;5327;47.238;-2.304;2022-09-21T10:59:44;5.90;;;2.90;;
10557;SDS011;5327;47.238;-2.304;2022-09-21T11:04:49;7.30;;;2.93;;
10557;SDS011;5327;47.238;-2.304;2022-09-21T11:07:26;7.43;;;3.63;;
10557;SDS011;5327;47.238;-2.304;2022-09-21T11:10:29;10.93;;;3.93;;
10557;SDS011;5327;47.238;-2.304;2022-09-21T11:18:29;8.30;;;2.73;;
10557;SDS011;5327;47.238;-2.304;2022-09-21T11:21:04;8.60;;;3.10;;
10557;SDS011;5327;47.238;-2.304;2022-09-21T11:28:55;9.70;;;3.50;;
10557;SDS011;5327;47.238;-2.304;2022-09-21T11:44:32;9.67;;;3.17;;
10557;SDS011;5327;47.238;-2.304;2022-09-21T11:57:47;7.40;;;3.30;;
10557;SDS011;5327;47.238;-2.304;2022-09-21T12:00:16;8.00;;;3.37;;
10557;SDS011;5327;47.238;-2.304;2022-09-21T12:05:23;10.43;;;3.47;;
10557;SDS011;5327;47.238;-2.304;2022-09-21T12:08:02;7.67;;;3.07;;
10557;SDS011;5327;47.238;-2.304;2022-09-21T12:10:42;9.57;;;3.30;;
10557;SDS011;5327;47.238;-2.304;2022-09-21T12:21:03;11.97;;;3.27;;
10557;SDS011;5327;47.238;-2.304;2022-09-21T12:23:38;6.40;;;2.20;;
10557;SDS011;5327;47.238;-2.304;2022-09-21T12:26:05;6.23;;;2.33;;
10557;SDS011;5327;47.238;-2.304;2022-09-21T12:28:45;8.77;;;3.00;;
10557;SDS011;5327;47.238;-2.304;2022-09-21T12:31:17;7.03;;;2.20;;
10557;SDS011;5327;47.238;-2.304;2022-09-21T12:37:16;8.13;;;3.10;;
10557;SDS011;5327;47.238;-2.304;2022-09-21T12:42:30;7.40;;;2.80;;
10557;SDS011;5327;47.238;-2.304;2022-09-21T12:50:17;9.27;;;3.03;;
10557;SDS011;5327;47.238;-2.304;2022-09-21T12:52:45;7.10;;;2.70;;
10557;SDS011;5327;47.238;-2.304;2022-09-21T12:58:07;7.27;;;2.60;;
10557;SDS011;5327;47.238;-2.304;2022-09-21T13:00:39;5.70;;;2.27;;
10557;SDS011;5327;47.238;-2.304;2022-09-21T13:03:10;5.77;;;2.40;;
10557;SDS011;5327;47.238;-2.304;2022-09-21T13:05:41;6.50;;;2.20;;
10557;SDS011;5327;47.238;-2.304;2022-09-21T13:08:16;15.70;;;4.67;;
10557;SDS011;5327;47.238;-2.304;2022-09-21T13:10:47;10.47;;;3.07;;
10557;SDS011;5327;47.238;-2.304;2022-09-21T13:13:29;9.80;;;2.83;;
10557;SDS011;5327;47.238;-2.304;2022-09-21T13:15:57;8.17;;;2.30;;
10557;SDS011;5327;47.238;-2.304;2022-09-21T13:18:31;8.90;;;3.07;;
10557;SDS011;5327;47.238;-2.304;2022-09-21T13:20:59;5.70;;;2.30;;
10557;SDS011;5327;47.238;-2.304;2022-09-21T13:26:01;10.17;;;2.83;;
10557;SDS011;5327;47.238;-2.304;2022-09-21T13:33:39;5.30;;;2.30;;
10557;SDS011;5327;47.238;-2.304;2022-09-21T13:36:27;7.20;;;1.83;;
10557;SDS011;5327;47.238;-2.304;2022-09-21T13:41:39;6.33;;;2.63;;
10557;SDS011;5327;47.238;-2.304;2022-09-21T13:44:19;6.10;;;2.60;;
10557;SDS011;5327;47.238;-2.304;2022-09-21T13:46:49;7.37;;;2.47;;
10557;SDS011;5327;47.238;-2.304;2022-09-21T13:54:18;5.70;;;2.30;;
10557;SDS011;5327;47.238;-2.304;2022-09-21T13:56:45;5.27;;;2.27;;
10557;SDS011;5327;47.238;-2.304;2022-09-21T13:59:30;6.47;;;2.53;;
10557;SDS011;5327;47.238;-2.304;2022-09-21T14:01:57;6.13;;;2.77;;
10557;SDS011;5327;47.238;-2.304;2022-09-21T14:04:41;13.17;;;2.70;;
10557;SDS011;5327;47.238;-2.304;2022-09-21T14:07:12;6.50;;;2.63;;
10557;SDS011;5327;47.238;-2.304;2022-09-21T14:09:58;5.00;;;2.07;;
10557;SDS011;5327;47.238;-2.304;2022-09-21T14:12:25;6.83;;;2.43;;
10557;SDS011;5327;47.238;-2.304;2022-09-21T14:17:37;6.70;;;3.40;;
10557;SDS011;5327;47.238;-2.304;2022-09-21T14:20:49;7.03;;;2.77;;
10557;SDS011;5327;47.238;-2.304;2022-09-21T14:23:09;8.73;;;2.07;;
10557;SDS011;5327;47.238;-2.304;2022-09-21T14:25:52;8.17;;;3.10;;
10557;SDS011;5327;47.238;-2.304;2022-09-21T14:28:42;5.83;;;2.50;;
10557;SDS011;5327;47.238;-2.304;2022-09-21T14:31:23;6.10;;;2.30;;
10557;SDS011;5327;47.238;-2.304;2022-09-21T14:33:52;6.60;;;2.53;;
10557;SDS011;5327;47.238;-2.304;2022-09-21T14:36:23;6.60;;;2.77;;
10557;SDS011;5327;47.238;-2.304;2022-09-21T14:38:54;7.00;;;2.57;;
10557;SDS011;5327;47.238;-2.304;2022-09-21T14:41:24;5.50;;;2.20;;
10557;SDS011;5327;47.238;-2.304;2022-09-21T14:43:55;7.00;;;2.63;;
10557;SDS011;5327;47.238;-2.304;2022-09-21T14:57:08;6.07;;;2.33;;
10557;SDS011;5327;47.238;-2.304;2022-09-21T15:02:20;7.27;;;2.40;;
10557;SDS011;5327;47.238;-2.304;2022-09-21T15:13:16;9.13;;;3.57;;
10557;SDS011;5327;47.238;-2.304;2022-09-21T15:18:22;7.37;;;2.90;;
10557;SDS011;5327;47.238;-2.304;2022-09-21T15:23:32;4.57;;;2.10;;
10557;SDS011;5327;47.238;-2.304;2022-09-21T15:25:59;5.80;;;2.80;;
10557;SDS011;5327;47.238;-2.304;2022-09-21T15:28:37;8.70;;;2.90;;
10557;SDS011;5327;47.238;-2.304;2022-09-21T15:31:04;7.80;;;2.67;;
10557;SDS011;5327;47.238;-2.304;2022-09-21T15:33:38;8.90;;;3.00;;
10557;SDS011;5327;47.238;-2.304;2022-09-21T15:36:06;6.93;;;2.87;;
10557;SDS011;5327;47.238;-2.304;2022-09-21T15:38:34;8.40;;;2.43;;
10557;SDS011;5327;47.238;-2.304;2022-09-21T15:41:03;8.70;;;3.70;;
10557;SDS011;5327;47.238;-2.304;2022-09-21T15:43:29;8.20;;;2.53;;
10557;SDS011;5327;47.238;-2.304;2022-09-21T15:46:00;8.30;;;2.90;;
10557;SDS011;5327;47.238;-2.304;2022-09-21T15:48:27;7.43;;;2.43;;
10557;SDS011;5327;47.238;-2.304;2022-09-21T15:53:34;9.97;;;4.23;;
10557;SDS011;5327;47.238;-2.304;2022-09-21T15:56:04;8.40;;;2.70;;
10557;SDS011;5327;47.238;-2.304;2022-09-21T15:58:31;10.33;;;2.93;;
10557;SDS011;5327;47.238;-2.304;2022-09-21T16:00:59;6.90;;;2.40;;
10557;SDS011;5327;47.238;-2.304;2022-09-21T16:03:26;6.70;;;2.30;;
10557;SDS011;5327;47.238;-2.304;2022-09-21T16:05:53;6.97;;;2.60;;
10557;SDS011;5327;47.238;-2.304;2022-09-21T16:08:27;6.90;;;2.50;;
10557;SDS011;5327;47.238;-2.304;2022-09-21T16:11:09;8.07;;;2.80;;
10557;SDS011;5327;47.238;-2.304;2022-09-21T16:13:35;9.53;;;2.60;;
10557;SDS011;5327;47.238;-2.304;2022-09-21T16:16:20;6.57;;;2.30;;
10557;SDS011;5327;47.238;-2.304;2022-09-21T16:18:47;7.80;;;2.60;;
10557;SDS011;5327;47.238;-2.304;2022-09-21T16:21:20;7.13;;;2.60;;
10557;SDS011;5327;47.238;-2.304;2022-09-21T16:23:48;5.43;;;2.10;;
10557;SDS011;5327;47.238;-2.304;2022-09-21T16:26:17;7.47;;;3.00;;
10557;SDS011;5327;47.238;-2.304;2022-09-21T16:28:44;8.10;;;2.30;;
10557;SDS011;5327;47.238;-2.304;2022-09-21T16:31:27;9.37;;;3.23;;
10557;SDS011;5327;47.238;-2.304;2022-09-21T16:38:58;7.80;;;2.80;;
10557;SDS011;5327;47.238;-2.304;2022-09-21T16:41:34;5.03;;;1.90;;
10557;SDS011;5327;47.238;-2.304;2022-09-21T16:44:02;4.53;;;2.07;;
10557;SDS011;5327;47.238;-2.304;2022-09-21T16:46:29;9.20;;;2.70;;
10557;SDS011;5327;47.238;-2.304;2022-09-21T16:48:59;7.80;;;2.90;;
10557;SDS011;5327;47.238;-2.304;2022-09-21T16:51:26;7.10;;;2.60;;
10557;SDS011;5327;47.238;-2.304;2022-09-21T16:53:53;8.20;;;3.27;;
10557;SDS011;5327;47.238;-2.304;2022-09-21T16:56:20;9.07;;;2.70;;
10557;SDS011;5327;47.238;-2.304;2022-09-21T16:58:46;13.57;;;3.37;;
10557;SDS011;5327;47.238;-2.304;2022-09-21T17:01:13;13.10;;;3.63;;
10557;SDS011;5327;47.238;-2.304;2022-09-21T17:03:39;7.30;;;2.37;;
10557;SDS011;5327;47.238;-2.304;2022-09-21T17:06:18;10.30;;;2.30;;
10557;SDS011;5327;47.238;-2.304;2022-09-21T17:08:45;8.10;;;2.77;;
10557;SDS011;5327;47.238;-2.304;2022-09-21T17:11:15;10.20;;;3.30;;
10557;SDS011;5327;47.238;-2.304;2022-09-21T17:13:47;9.00;;;2.10;;
10557;SDS011;5327;47.238;-2.304;2022-09-21T17:16:13;12.00;;;3.50;;
10557;SDS011;5327;47.238;-2.304;2022-09-21T17:18:42;9.17;;;2.60;;
10557;SDS011;5327;47.238;-2.304;2022-09-21T17:21:08;10.17;;;2.60;;
10557;SDS011;5327;47.238;-2.304;2022-09-21T17:23:34;7.93;;;2.53;;
10557;SDS011;5327;47.238;-2.304;2022-09-21T17:26:01;5.80;;;2.00;;
10557;SDS011;5327;47.238;-2.304;2022-09-21T17:28:27;7.70;;;2.60;;
10557;SDS011;5327;47.238;-2.304;2022-09-21T17:30:53;10.40;;;3.10;;
10557;SDS011;5327;47.238;-2.304;2022-09-21T17:33:20;10.07;;;2.80;;
10557;SDS011;5327;47.238;-2.304;2022-09-21T17:35:47;11.20;;;2.57;;
10557;SDS011;5327;47.238;-2.304;2022-09-21T17:38:15;9.80;;;3.07;;
10557;SDS011;5327;47.238;-2.304;2022-09-21T17:40:42;7.97;;;2.60;;
10557;SDS011;5327;47.238;-2.304;2022-09-21T17:43:17;7.43;;;2.40;;
10557;SDS011;5327;47.238;-2.304;2022-09-21T17:48:18;18.80;;;3.43;;
10557;SDS011;5327;47.238;-2.304;2022-09-21T17:50:44;13.73;;;3.87;;
10557;SDS011;5327;47.238;-2.304;2022-09-21T17:53:11;11.53;;;2.70;;
10557;SDS011;5327;47.238;-2.304;2022-09-21T17:55:56;10.37;;;2.63;;